createdAt,value
2023-01-31T00:08:48.565Z,7.11
2023-01-31T00:46:59.853Z,7.14
2023-01-31T00:49:35.485Z,7.14
2023-01-31T00:52:08.940Z,7.16
2023-01-31T00:54:42.972Z,7.02
2023-01-31T00:57:16.009Z,7.06
2023-01-31T00:59:48.855Z,7.02
2023-01-31T01:02:23.212Z,7.00
2023-01-31T01:04:57.026Z,7.00
2023-01-31T01:07:29.895Z,7.00
2023-01-31T01:10:02.861Z,6.95
2023-01-31T01:12:36.470Z,6.98
2023-01-31T01:15:10.223Z,6.93
2023-01-31T01:17:44.477Z,6.91
2023-01-31T01:20:18.212Z,6.98
2023-01-31T01:22:51.050Z,6.99
2023-01-31T01:25:24.327Z,6.95
2023-01-31T01:27:57.405Z,6.96
2023-01-31T01:30:31.574Z,6.84
2023-01-31T01:33:05.808Z,6.98
2023-01-31T01:35:38.733Z,6.88
2023-01-31T01:38:12.841Z,6.98
2023-01-31T01:40:46.171Z,6.92
2023-01-31T01:43:19.274Z,6.91
2023-01-31T01:45:53.974Z,6.95
2023-01-31T01:48:29.204Z,6.99
2023-01-31T01:51:05.503Z,7.03
2023-01-31T01:53:42.866Z,7.01
2023-01-31T01:56:20.874Z,7.12
2023-01-31T01:58:59.749Z,7.00
2023-01-31T02:01:36.759Z,7.02
2023-01-31T02:04:19.439Z,7.08
2023-01-31T02:06:53.503Z,7.12
2023-01-31T02:09:36.174Z,7.10
2023-01-31T02:12:13.667Z,7.16
2023-01-31T02:14:48.521Z,7.13
2023-01-31T02:17:21.883Z,7.25
2023-01-31T02:20:12.615Z,7.17
2023-01-31T02:23:00.273Z,7.17
2023-01-31T02:26:20.148Z,7.19
2023-01-31T02:29:12.671Z,7.19
2023-01-31T02:32:35.598Z,7.23
2023-01-31T02:35:17.064Z,7.24
2023-01-31T02:38:00.116Z,7.27
2023-01-31T02:40:40.976Z,7.21
2023-01-31T02:43:21.840Z,7.22
2023-01-31T02:46:02.112Z,7.29
2023-01-31T02:48:45.279Z,7.27
2023-01-31T02:51:24.233Z,7.22
2023-01-31T02:54:05.932Z,7.23
2023-01-31T02:56:41.838Z,7.30
2023-01-31T02:59:22.003Z,7.31
2023-01-31T03:02:00.552Z,7.28
2023-01-31T03:04:36.760Z,7.35
2023-01-31T03:07:15.633Z,7.28
2023-01-31T03:10:01.379Z,7.29
2023-01-31T03:12:45.688Z,7.25
2023-01-31T03:15:51.550Z,7.33
2023-01-31T03:18:29.693Z,7.27
2023-01-31T03:21:11.529Z,7.27
2023-01-31T03:23:49.479Z,7.30
2023-01-31T03:26:23.987Z,7.36
2023-01-31T03:28:58.850Z,7.27
2023-01-31T03:31:36.981Z,7.34
2023-01-31T03:34:14.208Z,7.30
2023-01-31T03:36:56.899Z,7.34
2023-01-31T03:39:56.646Z,7.36
2023-01-31T03:42:36.764Z,7.37
2023-01-31T03:45:15.850Z,7.35
2023-01-31T03:47:51.202Z,7.34
2023-01-31T03:50:29.349Z,7.38
2023-01-31T03:53:08.700Z,7.38
2023-01-31T03:55:49.678Z,7.34
2023-01-31T03:58:27.091Z,7.45
2023-01-31T04:01:06.049Z,7.29
2023-01-31T04:03:44.660Z,7.38
2023-01-31T04:06:17.992Z,7.41
2023-01-31T04:08:52.406Z,7.48
2023-01-31T04:11:27.772Z,7.41
2023-01-31T04:14:00.794Z,7.42
2023-01-31T04:16:33.594Z,7.50
2023-01-31T04:19:06.905Z,7.45
2023-01-31T04:21:39.694Z,7.45
2023-01-31T04:24:14.143Z,7.47
2023-01-31T04:26:47.288Z,7.54
2023-01-31T04:29:20.631Z,7.50
2023-01-31T04:31:53.790Z,7.54
2023-01-31T04:34:27.284Z,7.55
2023-01-31T04:37:00.329Z,7.57
2023-01-31T04:39:34.484Z,7.53
2023-01-31T04:42:07.471Z,7.57
2023-01-31T04:44:40.345Z,7.61
2023-01-31T04:47:13.363Z,7.61
2023-01-31T04:49:46.257Z,7.58
2023-01-31T04:52:19.266Z,7.56
2023-01-31T04:54:53.457Z,7.59
2023-01-31T04:57:26.340Z,7.59
2023-01-31T04:59:59.204Z,7.60
2023-01-31T05:02:32.230Z,7.62
2023-01-31T05:05:05.825Z,7.62
2023-01-31T05:07:39.671Z,7.57
2023-01-31T05:10:14.449Z,7.65
2023-01-31T05:12:47.846Z,7.59
2023-01-31T05:15:21.143Z,7.60
2023-01-31T05:17:54.391Z,7.60
2023-01-31T05:20:27.579Z,7.66
2023-01-31T05:23:00.625Z,7.68
2023-01-31T05:25:35.971Z,7.71
2023-01-31T05:28:08.844Z,7.70
2023-01-31T05:30:42.099Z,7.65
2023-01-31T05:33:15.212Z,7.59
2023-01-31T05:35:48.249Z,7.64
2023-01-31T05:38:21.086Z,7.60
2023-01-31T05:40:55.185Z,7.69
2023-01-31T05:43:28.170Z,7.61
2023-01-31T05:46:01.449Z,7.71
2023-01-31T05:48:36.923Z,7.72
2023-01-31T05:51:09.951Z,7.74
2023-01-31T05:53:42.783Z,7.78
2023-01-31T05:56:17.813Z,7.79
2023-01-31T05:58:51.832Z,7.79
2023-01-31T06:01:28.709Z,7.82
2023-01-31T06:04:02.031Z,7.80
2023-01-31T06:06:35.021Z,7.79
2023-01-31T06:09:07.754Z,7.83
2023-01-31T06:11:43.152Z,7.91
2023-01-31T06:14:16.053Z,7.84
2023-01-31T06:16:48.973Z,7.81
2023-01-31T06:19:25.232Z,7.89
2023-01-31T06:21:58.217Z,7.71
2023-01-31T06:24:31.742Z,7.82
2023-01-31T06:27:05.946Z,7.85
2023-01-31T06:29:39.052Z,7.78
2023-01-31T06:32:11.807Z,7.82
2023-01-31T06:34:46.108Z,7.96
2023-01-31T06:37:19.358Z,7.86
2023-01-31T06:39:52.172Z,7.99
2023-01-31T06:42:26.437Z,7.92
2023-01-31T06:45:00.763Z,8.04
2023-01-31T06:47:33.928Z,7.94
2023-01-31T06:50:07.727Z,7.98
2023-01-31T06:52:41.293Z,8.02
2023-01-31T06:55:14.241Z,7.87
2023-01-31T06:57:48.969Z,7.98
2023-01-31T07:00:24.738Z,8.03
2023-01-31T07:02:57.929Z,8.04
2023-01-31T07:05:31.111Z,7.83
2023-01-31T07:08:04.002Z,7.89
2023-01-31T07:10:36.760Z,7.98
2023-01-31T07:13:11.154Z,7.93
2023-01-31T07:15:44.270Z,8.03
2023-01-31T07:18:17.131Z,8.09
2023-01-31T07:20:52.821Z,8.08
2023-01-31T07:23:25.960Z,8.13
2023-01-31T07:25:58.920Z,8.03
2023-01-31T07:28:33.117Z,8.06
2023-01-31T07:31:06.836Z,8.01
2023-01-31T07:33:40.549Z,8.12
2023-01-31T07:36:15.538Z,8.09
2023-01-31T07:38:48.412Z,8.02
2023-01-31T07:41:21.343Z,8.08
2023-01-31T07:43:55.441Z,8.17
2023-01-31T07:46:28.279Z,8.13
2023-01-31T07:49:01.146Z,8.15
2023-01-31T07:51:34.584Z,8.07
2023-01-31T07:54:11.606Z,8.15
2023-01-31T07:56:44.468Z,8.15
2023-01-31T07:59:18.867Z,8.13
2023-01-31T08:02:09.222Z,8.10
2023-01-31T08:04:42.014Z,8.18
2023-01-31T08:07:15.234Z,7.98
2023-01-31T08:09:49.828Z,8.02
2023-01-31T08:12:22.544Z,7.99
2023-01-31T08:14:58.001Z,8.02
2023-01-31T08:17:30.890Z,8.07
2023-01-31T08:20:04.195Z,8.09
2023-01-31T08:22:37.067Z,8.03
2023-01-31T08:25:11.276Z,8.17
2023-01-31T08:27:44.224Z,8.07
2023-01-31T08:30:18.799Z,8.11
2023-01-31T08:32:51.495Z,8.02
2023-01-31T08:35:26.292Z,7.98
2023-01-31T08:38:14.413Z,8.01
2023-01-31T08:40:50.271Z,8.08
2023-01-31T08:43:23.196Z,7.92
2023-01-31T08:45:57.242Z,7.91
2023-01-31T08:48:30.259Z,7.98
2023-01-31T08:51:04.753Z,8.01
2023-01-31T08:53:39.659Z,7.92
2023-01-31T08:56:14.553Z,8.08
2023-01-31T08:58:47.514Z,8.12
2023-01-31T09:01:21.915Z,7.98
2023-01-31T09:03:56.978Z,8.02
2023-01-31T09:06:30.260Z,8.20
2023-01-31T09:09:03.463Z,8.18
2023-01-31T09:11:36.718Z,8.29
2023-01-31T09:14:09.509Z,8.26
2023-01-31T09:16:45.787Z,8.31
2023-01-31T09:19:18.633Z,8.42
2023-01-31T09:21:51.473Z,8.42
2023-01-31T09:24:26.895Z,8.56
2023-01-31T09:26:59.944Z,8.57
2023-01-31T09:29:32.564Z,8.60
2023-01-31T09:32:07.290Z,8.67
2023-01-31T09:34:40.109Z,8.77
2023-01-31T09:37:12.910Z,8.79
2023-01-31T09:39:45.752Z,8.85
2023-01-31T09:42:24.136Z,8.85
2023-01-31T09:45:03.605Z,8.90
2023-01-31T09:47:43.664Z,8.94
2023-01-31T09:50:21.450Z,9.00
2023-01-31T09:52:54.655Z,9.09
2023-01-31T09:55:34.469Z,9.09
2023-01-31T09:58:19.240Z,9.10
2023-01-31T10:01:00.469Z,9.18
2023-01-31T10:03:48.552Z,9.10
2023-01-31T10:06:25.227Z,9.21
2023-01-31T10:09:04.035Z,9.22
2023-01-31T10:11:41.334Z,9.21
2023-01-31T10:14:27.334Z,9.24
2023-01-31T10:17:07.124Z,9.28
2023-01-31T10:19:48.680Z,9.32
2023-01-31T10:22:33.020Z,9.30
2023-01-31T10:25:18.517Z,9.33
2023-01-31T10:27:55.741Z,9.40
2023-01-31T10:30:39.374Z,9.32
2023-01-31T10:33:24.166Z,9.43
2023-01-31T10:36:03.393Z,9.43
2023-01-31T10:38:41.935Z,9.39
2023-01-31T10:41:18.503Z,9.25
2023-01-31T10:44:00.462Z,9.34
2023-01-31T10:46:33.323Z,9.35
2023-01-31T10:49:06.327Z,9.41
2023-01-31T10:51:53.829Z,9.41
2023-01-31T10:54:42.879Z,9.53
2023-01-31T10:57:16.842Z,9.63
2023-01-31T10:59:51.497Z,9.56
2023-01-31T11:02:26.911Z,9.54
2023-01-31T11:05:02.508Z,9.60
2023-01-31T11:07:35.868Z,9.62
2023-01-31T11:10:25.822Z,9.65
2023-01-31T11:13:01.916Z,9.54
2023-01-31T11:15:39.074Z,9.61
2023-01-31T11:18:16.367Z,9.54
2023-01-31T11:20:49.230Z,9.60
2023-01-31T11:23:25.559Z,9.55
2023-01-31T11:26:00.357Z,9.52
2023-01-31T11:28:37.131Z,9.45
2023-01-31T11:31:20.577Z,9.58
2023-01-31T11:33:58.868Z,9.50
2023-01-31T11:36:37.258Z,9.46
2023-01-31T11:39:26.415Z,9.48
2023-01-31T11:42:07.259Z,9.52
2023-01-31T11:44:55.858Z,9.49
2023-01-31T11:47:41.576Z,9.56
2023-01-31T11:50:22.455Z,9.62
2023-01-31T11:52:57.533Z,9.63
2023-01-31T11:55:38.193Z,9.68
2023-01-31T11:58:19.722Z,9.63
2023-01-31T12:00:56.262Z,9.70
2023-01-31T12:03:30.421Z,9.54
2023-01-31T12:06:06.057Z,9.71
2023-01-31T12:08:43.087Z,9.75
2023-01-31T12:11:32.884Z,9.83
2023-01-31T12:14:16.154Z,9.92
2023-01-31T12:16:51.196Z,9.99
2023-01-31T12:19:39.947Z,9.92
2023-01-31T12:22:19.645Z,9.88
2023-01-31T12:24:58.883Z,9.96
2023-01-31T12:27:43.852Z,9.95
2023-01-31T12:30:58.239Z,10.02
2023-01-31T12:33:41.602Z,10.07
2023-01-31T12:36:21.911Z,10.10
2023-01-31T12:39:04.632Z,10.21
2023-01-31T12:41:41.444Z,10.16
2023-01-31T12:44:33.477Z,10.20
2023-01-31T12:47:31.957Z,10.29
2023-01-31T12:50:23.582Z,10.29
2023-01-31T12:53:20.937Z,10.31
2023-01-31T12:56:13.268Z,10.30
2023-01-31T12:59:02.884Z,10.33
2023-01-31T13:01:49.753Z,10.42
2023-01-31T13:04:36.445Z,10.38
2023-01-31T13:07:17.336Z,10.48
2023-01-31T13:09:54.220Z,10.48
2023-01-31T13:12:32.525Z,10.56
2023-01-31T13:15:15.551Z,10.62
2023-01-31T13:17:53.720Z,10.42
2023-01-31T13:20:34.854Z,10.52
2023-01-31T13:23:14.186Z,10.60
2023-01-31T13:25:52.800Z,10.60
2023-01-31T13:28:29.742Z,10.60
2023-01-31T13:31:06.200Z,10.56
2023-01-31T13:33:45.767Z,10.55
2023-01-31T13:36:26.684Z,10.58
2023-01-31T13:39:04.223Z,10.55
2023-01-31T13:41:40.277Z,10.59
2023-01-31T13:44:15.313Z,10.64
2023-01-31T13:46:54.245Z,10.65
2023-01-31T13:49:30.706Z,10.62
2023-01-31T13:52:11.299Z,10.53
2023-01-31T13:54:48.876Z,10.63
2023-01-31T13:57:26.880Z,10.62
2023-01-31T14:00:10.035Z,10.67
2023-01-31T14:03:01.359Z,10.70
2023-01-31T14:05:53.912Z,10.72
2023-01-31T14:08:36.727Z,10.74
2023-01-31T14:11:34.572Z,10.63
2023-01-31T14:14:21.525Z,10.76
2023-01-31T14:16:54.454Z,10.81
2023-01-31T14:20:09.393Z,10.88
2023-01-31T14:22:42.278Z,10.82
2023-01-31T14:25:16.560Z,10.77
2023-01-31T14:28:03.768Z,10.71
2023-01-31T14:30:40.621Z,10.78
2023-01-31T14:33:26.010Z,10.85
2023-01-31T14:36:42.193Z,10.84
2023-01-31T14:40:04.131Z,10.69
2023-01-31T14:43:11.655Z,10.82
2023-01-31T14:45:59.310Z,10.85
2023-01-31T14:48:54.750Z,10.78
2023-01-31T14:51:42.947Z,10.79
2023-01-31T14:54:31.522Z,10.79
2023-01-31T14:57:15.964Z,10.74
2023-01-31T14:59:57.631Z,10.77
2023-01-31T15:02:56.916Z,10.79
2023-01-31T15:05:45.473Z,10.79
2023-01-31T15:08:45.883Z,10.81
2023-01-31T15:11:42.908Z,10.79
2023-01-31T15:14:36.371Z,10.77
2023-01-31T15:17:34.574Z,10.82
2023-01-31T15:20:18.069Z,10.76
2023-01-31T15:22:52.035Z,10.72
2023-01-31T15:25:34.262Z,10.77
2023-01-31T15:28:11.458Z,10.79
2023-01-31T15:30:45.546Z,10.84
2023-01-31T15:33:28.206Z,10.86
2023-01-31T15:36:04.101Z,10.83
2023-01-31T15:38:42.387Z,10.75
2023-01-31T15:41:22.508Z,10.77
2023-01-31T15:43:56.831Z,10.64
2023-01-31T15:46:32.086Z,10.64
2023-01-31T15:49:36.917Z,10.69
2023-01-31T15:52:16.748Z,10.72
2023-01-31T15:54:54.821Z,10.67
2023-01-31T15:57:34.874Z,10.70
2023-01-31T16:00:09.384Z,10.62
2023-01-31T16:02:48.256Z,10.64
2023-01-31T16:05:23.298Z,10.65
2023-01-31T16:07:56.351Z,10.68
2023-01-31T16:10:30.800Z,10.68
2023-01-31T16:13:03.996Z,10.69
2023-01-31T16:15:36.903Z,10.68
2023-01-31T16:18:12.390Z,10.60
2023-01-31T16:20:49.001Z,10.62
2023-01-31T16:23:31.018Z,10.55
2023-01-31T16:26:10.208Z,10.55
2023-01-31T16:28:45.277Z,10.53
2023-01-31T16:31:21.574Z,10.49
2023-01-31T16:33:58.104Z,10.51
2023-01-31T16:36:35.591Z,10.46
2023-01-31T16:39:09.277Z,10.45
2023-01-31T16:41:46.640Z,10.38
2023-01-31T16:44:22.263Z,10.34
2023-01-31T16:46:56.931Z,10.38
2023-01-31T16:49:32.089Z,10.36
2023-01-31T16:52:19.241Z,10.40
2023-01-31T16:55:01.721Z,10.29
2023-01-31T16:57:38.846Z,10.29
2023-01-31T17:00:35.906Z,10.20
2023-01-31T17:03:19.834Z,10.21
2023-01-31T17:05:52.965Z,10.23
2023-01-31T17:08:27.063Z,10.20
2023-01-31T17:10:59.891Z,10.15
2023-01-31T17:13:32.630Z,10.10
2023-01-31T17:16:14.921Z,10.04
2023-01-31T17:18:47.811Z,9.97
2023-01-31T17:21:21.076Z,9.95
2023-01-31T17:23:55.198Z,9.94
2023-01-31T17:26:28.168Z,9.89
2023-01-31T17:29:03.817Z,9.89
2023-01-31T17:31:36.865Z,9.87
2023-01-31T17:34:12.771Z,9.85
2023-01-31T17:36:46.573Z,9.79
2023-01-31T17:39:20.789Z,9.73
2023-01-31T17:41:53.544Z,9.71
2023-01-31T17:44:32.251Z,9.69
2023-01-31T17:47:05.132Z,9.71
2023-01-31T17:49:37.708Z,9.62
2023-01-31T17:52:11.269Z,9.62
2023-01-31T17:54:45.708Z,9.60
2023-01-31T17:57:18.552Z,9.55
2023-01-31T17:59:52.285Z,9.50
2023-01-31T18:02:25.377Z,9.49
2023-01-31T18:04:58.187Z,9.46
2023-01-31T18:07:31.084Z,9.47
2023-01-31T18:10:06.333Z,9.44
2023-01-31T18:12:39.279Z,9.42
2023-01-31T18:15:12.363Z,9.31
2023-01-31T18:17:45.387Z,9.24
2023-01-31T18:20:20.647Z,9.28
2023-01-31T18:22:53.611Z,9.16
2023-01-31T18:25:27.849Z,9.20
2023-01-31T18:28:00.685Z,9.24
2023-01-31T18:30:33.646Z,9.30
2023-01-31T18:33:06.508Z,9.23
2023-01-31T18:35:39.214Z,9.21
2023-01-31T18:38:13.569Z,9.08
2023-01-31T18:40:47.567Z,9.21
2023-01-31T18:43:20.523Z,9.29
2023-01-31T18:45:53.485Z,9.27
2023-01-31T18:48:29.044Z,9.22
2023-01-31T18:51:04.022Z,9.24
2023-01-31T18:53:38.834Z,9.26
2023-01-31T18:56:14.969Z,9.22
2023-01-31T18:58:50.036Z,9.20
2023-01-31T19:01:24.467Z,9.24
2023-01-31T19:03:58.575Z,9.26
2023-01-31T19:06:36.273Z,9.07
2023-01-31T19:09:10.331Z,9.19
2023-01-31T19:11:45.219Z,9.21
2023-01-31T19:14:18.148Z,9.22
2023-01-31T19:16:50.966Z,9.25
2023-01-31T19:19:23.809Z,9.27
2023-01-31T19:21:57.147Z,9.29
2023-01-31T19:24:30.593Z,9.27
2023-01-31T19:27:04.829Z,9.20
2023-01-31T19:29:39.799Z,9.21
2023-01-31T19:32:12.752Z,9.20
2023-01-31T19:34:45.758Z,9.24
2023-01-31T19:37:18.590Z,9.18
2023-01-31T19:39:51.803Z,9.16
2023-01-31T19:42:28.187Z,9.16
2023-01-31T19:45:01.438Z,9.10
2023-01-31T19:47:34.325Z,9.11
2023-01-31T19:50:07.458Z,9.11
2023-01-31T19:52:40.491Z,9.10
2023-01-31T19:55:13.797Z,9.07
2023-01-31T19:57:48.002Z,9.08
2023-01-31T20:00:21.371Z,9.02
2023-01-31T20:02:54.129Z,9.02
2023-01-31T20:05:26.910Z,9.03
2023-01-31T20:07:59.681Z,9.02
2023-01-31T20:10:32.481Z,9.05
2023-01-31T20:13:06.660Z,8.96
2023-01-31T20:15:41.098Z,8.95
2023-01-31T20:18:14.146Z,8.76
2023-01-31T20:20:46.979Z,8.85
2023-01-31T20:23:19.804Z,8.81
2023-01-31T20:25:54.309Z,8.81
2023-01-31T20:28:30.769Z,8.81
2023-01-31T20:31:05.975Z,8.76
2023-01-31T20:33:44.570Z,8.80
2023-01-31T20:36:22.105Z,8.62
2023-01-31T20:38:58.642Z,8.73
2023-01-31T20:41:31.877Z,8.60
2023-01-31T20:44:08.605Z,8.57
2023-01-31T20:46:41.884Z,8.64
2023-01-31T20:49:14.993Z,8.67
2023-01-31T20:51:53.119Z,8.70
2023-01-31T20:54:30.915Z,8.69
2023-01-31T20:57:06.344Z,8.53
2023-01-31T20:59:42.527Z,8.54
2023-01-31T21:02:15.518Z,8.34
2023-01-31T21:04:49.527Z,8.43
2023-01-31T21:07:22.562Z,8.31
2023-01-31T21:09:55.908Z,8.30
2023-01-31T21:12:31.445Z,8.39
2023-01-31T21:15:07.086Z,8.30
2023-01-31T21:17:40.780Z,8.40
2023-01-31T21:20:13.651Z,8.36
2023-01-31T21:22:46.561Z,8.36
2023-01-31T21:25:19.127Z,8.45
2023-01-31T21:27:52.028Z,8.28
2023-01-31T21:30:26.479Z,8.33
2023-01-31T21:32:59.266Z,8.41
2023-01-31T21:35:32.436Z,8.28
2023-01-31T21:38:05.250Z,8.22
2023-01-31T21:40:39.127Z,8.29
2023-01-31T21:43:11.219Z,8.22
2023-01-31T21:45:45.303Z,8.36
2023-01-31T21:48:30.216Z,8.38
2023-01-31T21:51:06.205Z,8.39
2023-01-31T21:53:41.252Z,8.46
2023-01-31T21:56:15.902Z,8.38
2023-01-31T21:58:49.560Z,8.30
2023-01-31T22:01:26.031Z,8.36
2023-01-31T22:03:59.840Z,8.28
2023-01-31T22:06:37.328Z,8.23
2023-01-31T22:09:12.972Z,8.37
2023-01-31T22:11:47.652Z,8.25
2023-01-31T22:14:20.591Z,8.25
2023-01-31T22:16:55.151Z,8.22
2023-01-31T22:19:27.870Z,8.24
2023-01-31T22:22:00.613Z,8.16
2023-01-31T22:24:34.436Z,8.16
2023-01-31T22:27:07.180Z,8.04
2023-01-31T22:29:40.033Z,8.11
2023-01-31T22:32:14.141Z,8.08
2023-01-31T22:34:46.867Z,8.10
2023-01-31T22:37:19.513Z,8.03
2023-01-31T22:39:52.474Z,8.02
2023-01-31T22:42:25.162Z,8.04
2023-01-31T22:44:58.059Z,8.04
2023-01-31T22:47:32.136Z,8.10
2023-01-31T22:50:05.758Z,8.20
2023-01-31T22:52:38.465Z,8.05
2023-01-31T22:55:11.505Z,8.07
2023-01-31T22:57:44.149Z,8.16
2023-01-31T23:00:17.527Z,8.06
2023-01-31T23:02:51.805Z,8.03
2023-01-31T23:05:24.658Z,8.09
2023-01-31T23:07:58.387Z,7.99
2023-01-31T23:10:31.143Z,7.98
2023-01-31T23:13:03.967Z,7.98
2023-01-31T23:15:38.626Z,8.00
2023-01-31T23:18:15.837Z,8.06
2023-01-31T23:20:48.620Z,8.01
2023-01-31T23:23:21.935Z,8.07
2023-01-31T23:25:54.648Z,8.08
2023-01-31T23:28:27.466Z,7.95
2023-01-31T23:31:00.363Z,7.98
2023-01-31T23:33:34.331Z,7.92
2023-01-31T23:36:07.814Z,7.98
2023-01-31T23:38:40.481Z,7.99
2023-01-31T23:41:13.247Z,8.15
2023-01-31T23:43:45.929Z,7.97
2023-01-31T23:46:18.714Z,8.02
2023-01-31T23:48:52.901Z,8.02
2023-01-31T23:51:28.580Z,8.09
2023-01-31T23:54:01.331Z,8.11
2023-01-31T23:56:34.265Z,8.04
2023-01-31T23:59:06.948Z,8.06
